sensor_id;sensor_type;location;lat;lon;timestamp;pressure;altitude;pressure_sealevel;temperature;humidity
73267;BME280;61495;53.400;7.608;2023-05-22T00:00:19;101589.34;;;18.30;80.09
73267;BME280;61495;53.400;7.608;2023-05-22T00:02:45;101591.22;;;18.29;80.48
73267;BME280;61495;53.400;7.608;2023-05-22T00:05:12;101591.00;;;18.31;79.75
73267;BME280;61495;53.400;7.608;2023-05-22T00:07:38;101587.38;;;18.25;80.35
73267;BME280;61495;53.400;7.608;2023-05-22T00:10:05;101585.69;;;18.24;79.77
73267;BME280;61495;53.400;7.608;2023-05-22T00:12:31;101589.47;;;18.23;81.24
73267;BME280;61495;53.400;7.608;2023-05-22T00:14:56;101575.91;;;18.23;80.28
73267;BME280;61495;53.400;7.608;2023-05-22T00:17:22;101567.09;;;18.16;80.69
73267;BME280;61495;53.400;7.608;2023-05-22T00:19:47;101559.19;;;18.15;80.47
73267;BME280;61495;53.400;7.608;2023-05-22T00:22:13;101568.72;;;18.17;81.54
73267;BME280;61495;53.400;7.608;2023-05-22T00:24:38;101556.72;;;18.13;82.46
73267;BME280;61495;53.400;7.608;2023-05-22T00:27:04;101547.97;;;18.11;82.14
73267;BME280;61495;53.400;7.608;2023-05-22T00:29:29;101550.47;;;18.13;81.21
73267;BME280;61495;53.400;7.608;2023-05-22T00:31:55;101546.81;;;18.07;81.70
73267;BME280;61495;53.400;7.608;2023-05-22T00:34:26;101543.06;;;18.08;81.61
73267;BME280;61495;53.400;7.608;2023-05-22T00:36:52;101539.75;;;18.06;81.73
73267;BME280;61495;53.400;7.608;2023-05-22T00:39:17;101529.00;;;18.00;81.55
73267;BME280;61495;53.400;7.608;2023-05-22T00:41:42;101544.59;;;18.04;81.74
73267;BME280;61495;53.400;7.608;2023-05-22T00:44:08;101529.38;;;18.03;81.99
73267;BME280;61495;53.400;7.608;2023-05-22T00:46:34;101531.25;;;18.03;81.19
73267;BME280;61495;53.400;7.608;2023-05-22T00:49:00;101526.09;;;18.01;81.61
73267;BME280;61495;53.400;7.608;2023-05-22T00:51:25;101529.84;;;18.00;81.33
73267;BME280;61495;53.400;7.608;2023-05-22T00:53:51;101523.59;;;18.00;81.46
73267;BME280;61495;53.400;7.608;2023-05-22T00:56:18;101523.84;;;17.98;81.96
73267;BME280;61495;53.400;7.608;2023-05-22T00:58:46;101529.50;;;17.97;82.24
73267;BME280;61495;53.400;7.608;2023-05-22T01:01:11;101519.13;;;17.94;83.05
73267;BME280;61495;53.400;7.608;2023-05-22T01:03:44;101521.63;;;17.95;83.13
73267;BME280;61495;53.400;7.608;2023-05-22T01:06:14;101511.72;;;17.89;82.91
73267;BME280;61495;53.400;7.608;2023-05-22T01:08:41;101535.41;;;17.94;81.51
73267;BME280;61495;53.400;7.608;2023-05-22T01:11:12;101525.84;;;17.91;83.12
73267;BME280;61495;53.400;7.608;2023-05-22T01:13:54;101530.22;;;17.92;82.42
73267;BME280;61495;53.400;7.608;2023-05-22T01:16:52;101524.22;;;17.90;82.83
73267;BME280;61495;53.400;7.608;2023-05-22T01:25:11;101510.22;;;17.82;82.75
73267;BME280;61495;53.400;7.608;2023-05-22T01:33:06;101509.38;;;17.81;81.69
73267;BME280;61495;53.400;7.608;2023-05-22T01:35:34;101501.38;;;17.74;81.46
73267;BME280;61495;53.400;7.608;2023-05-22T01:38:02;101507.84;;;17.73;81.56
73267;BME280;61495;53.400;7.608;2023-05-22T01:40:28;101505.97;;;17.74;81.55
73267;BME280;61495;53.400;7.608;2023-05-22T01:42:54;101502.44;;;17.73;82.59
73267;BME280;61495;53.400;7.608;2023-05-22T01:45:19;101502.19;;;17.75;82.05
73267;BME280;61495;53.400;7.608;2023-05-22T01:47:45;101501.03;;;17.71;81.50
73267;BME280;61495;53.400;7.608;2023-05-22T01:50:11;101501.84;;;17.71;81.85
73267;BME280;61495;53.400;7.608;2023-05-22T01:52:51;101500.44;;;17.69;81.51
73267;BME280;61495;53.400;7.608;2023-05-22T01:55:23;101499.63;;;17.68;81.54
73267;BME280;61495;53.400;7.608;2023-05-22T01:57:57;101500.91;;;17.66;81.72
73267;BME280;61495;53.400;7.608;2023-05-22T02:00:25;101491.59;;;17.62;81.50
73267;BME280;61495;53.400;7.608;2023-05-22T02:03:05;101497.59;;;17.64;83.18
73267;BME280;61495;53.400;7.608;2023-05-22T02:05:32;101500.56;;;17.62;81.22
73267;BME280;61495;53.400;7.608;2023-05-22T02:08:01;101491.25;;;17.58;81.08
73267;BME280;61495;53.400;7.608;2023-05-22T02:10:28;101497.50;;;17.59;81.03
73267;BME280;61495;53.400;7.608;2023-05-22T02:12:56;101485.50;;;17.55;80.97
73267;BME280;61495;53.400;7.608;2023-05-22T02:15:21;101494.66;;;17.54;81.38
73267;BME280;61495;53.400;7.608;2023-05-22T02:17:46;101495.00;;;17.46;82.86
73267;BME280;61495;53.400;7.608;2023-05-22T02:20:14;101489.59;;;17.46;82.17
73267;BME280;61495;53.400;7.608;2023-05-22T02:22:41;101484.28;;;17.39;83.19
73267;BME280;61495;53.400;7.608;2023-05-22T02:25:08;101491.59;;;17.39;82.84
73267;BME280;61495;53.400;7.608;2023-05-22T02:27:38;101482.88;;;17.37;81.93
73267;BME280;61495;53.400;7.608;2023-05-22T02:30:04;101483.94;;;17.36;81.77
73267;BME280;61495;53.400;7.608;2023-05-22T02:32:39;101488.28;;;17.37;83.04
73267;BME280;61495;53.400;7.608;2023-05-22T02:35:05;101487.69;;;17.35;81.49
73267;BME280;61495;53.400;7.608;2023-05-22T02:37:31;101487.69;;;17.35;82.17
73267;BME280;61495;53.400;7.608;2023-05-22T02:39:56;101483.69;;;17.26;82.39
73267;BME280;61495;53.400;7.608;2023-05-22T02:42:22;101492.41;;;17.28;82.54
73267;BME280;61495;53.400;7.608;2023-05-22T02:44:47;101470.97;;;17.26;82.46
73267;BME280;61495;53.400;7.608;2023-05-22T02:47:13;101476.63;;;17.25;82.53
73267;BME280;61495;53.400;7.608;2023-05-22T02:49:38;101477.69;;;17.23;82.98
73267;BME280;61495;53.400;7.608;2023-05-22T02:52:03;101479.19;;;17.19;82.19
73267;BME280;61495;53.400;7.608;2023-05-22T02:54:29;101485.06;;;17.16;82.99
73267;BME280;61495;53.400;7.608;2023-05-22T02:56:55;101485.06;;;17.16;82.48
73267;BME280;61495;53.400;7.608;2023-05-22T02:59:20;101478.13;;;17.09;82.99
73267;BME280;61495;53.400;7.608;2023-05-22T03:01:46;101484.97;;;17.11;82.10
73267;BME280;61495;53.400;7.608;2023-05-22T03:04:21;101485.53;;;17.13;82.15
73267;BME280;61495;53.400;7.608;2023-05-22T03:06:47;101483.09;;;17.12;82.91
73267;BME280;61495;53.400;7.608;2023-05-22T03:09:12;101479.56;;;17.11;82.31
73267;BME280;61495;53.400;7.608;2023-05-22T03:11:37;101481.44;;;17.11;82.69
73267;BME280;61495;53.400;7.608;2023-05-22T03:14:03;101491.44;;;17.10;82.44
73267;BME280;61495;53.400;7.608;2023-05-22T03:16:28;101494.97;;;17.11;82.44
73267;BME280;61495;53.400;7.608;2023-05-22T03:19:09;101480.59;;;17.10;82.60
73267;BME280;61495;53.400;7.608;2023-05-22T03:21:35;101485.44;;;17.08;82.34
73267;BME280;61495;53.400;7.608;2023-05-22T03:24:01;101481.06;;;17.07;82.45
73267;BME280;61495;53.400;7.608;2023-05-22T03:26:26;101483.19;;;17.05;82.56
73267;BME280;61495;53.400;7.608;2023-05-22T03:28:53;101476.63;;;17.01;83.09
73267;BME280;61495;53.400;7.608;2023-05-22T03:31:18;101479.91;;;17.03;82.76
73267;BME280;61495;53.400;7.608;2023-05-22T03:33:50;101471.19;;;17.01;82.89
73267;BME280;61495;53.400;7.608;2023-05-22T03:36:15;101479.91;;;17.03;81.60
73267;BME280;61495;53.400;7.608;2023-05-22T03:38:41;101474.13;;;17.00;82.56
73267;BME280;61495;53.400;7.608;2023-05-22T03:41:06;101462.47;;;16.99;82.98
73267;BME280;61495;53.400;7.608;2023-05-22T03:43:32;101469.53;;;17.00;82.18
73267;BME280;61495;53.400;7.608;2023-05-22T03:45:58;101467.88;;;16.99;82.53
73267;BME280;61495;53.400;7.608;2023-05-22T03:48:23;101461.31;;;16.95;82.94
73267;BME280;61495;53.400;7.608;2023-05-22T03:50:49;101467.97;;;16.93;83.15
73267;BME280;61495;53.400;7.608;2023-05-22T03:53:15;101468.81;;;16.93;82.95
73267;BME280;61495;53.400;7.608;2023-05-22T03:55:40;101466.34;;;16.92;82.85
73267;BME280;61495;53.400;7.608;2023-05-22T03:58:06;101466.34;;;16.92;82.79
73267;BME280;61495;53.400;7.608;2023-05-22T04:00:31;101467.66;;;16.89;82.84
73267;BME280;61495;53.400;7.608;2023-05-22T04:03:02;101462.22;;;16.89;83.42
73267;BME280;61495;53.400;7.608;2023-05-22T04:05:28;101458.91;;;16.87;82.66
73267;BME280;61495;53.400;7.608;2023-05-22T04:07:56;101470.56;;;16.88;83.06
73267;BME280;61495;53.400;7.608;2023-05-22T04:10:21;101464.78;;;16.84;83.51
73267;BME280;61495;53.400;7.608;2023-05-22T04:12:48;101464.78;;;16.84;83.91
73267;BME280;61495;53.400;7.608;2023-05-22T04:15:13;101473.53;;;16.86;83.04
73267;BME280;61495;53.400;7.608;2023-05-22T04:17:39;101462.34;;;16.83;82.93
73267;BME280;61495;53.400;7.608;2023-05-22T04:20:08;101469.63;;;16.82;82.86
73267;BME280;61495;53.400;7.608;2023-05-22T04:22:33;101474.78;;;16.84;83.09
73267;BME280;61495;53.400;7.608;2023-05-22T04:24:59;101474.00;;;16.83;84.20
73267;BME280;61495;53.400;7.608;2023-05-22T04:27:25;101469.03;;;16.80;84.37
73267;BME280;61495;53.400;7.608;2023-05-22T04:29:50;101467.84;;;16.76;84.67
73267;BME280;61495;53.400;7.608;2023-05-22T04:32:22;101471.13;;;16.78;84.56
73267;BME280;61495;53.400;7.608;2023-05-22T04:34:48;101472.22;;;16.77;85.44
73267;BME280;61495;53.400;7.608;2023-05-22T04:37:17;101474.09;;;16.77;85.25
73267;BME280;61495;53.400;7.608;2023-05-22T04:39:44;101471.59;;;16.75;85.05
73267;BME280;61495;53.400;7.608;2023-05-22T04:42:11;101477.00;;;16.75;84.55
73267;BME280;61495;53.400;7.608;2023-05-22T04:44:39;101465.59;;;16.73;85.28
73267;BME280;61495;53.400;7.608;2023-05-22T04:47:04;101477.63;;;16.77;85.49
73267;BME280;61495;53.400;7.608;2023-05-22T04:49:31;101474.91;;;16.77;85.16
73267;BME280;61495;53.400;7.608;2023-05-22T04:51:57;101469.72;;;16.76;85.27
73267;BME280;61495;53.400;7.608;2023-05-22T04:54:23;101469.34;;;16.72;86.29
73267;BME280;61495;53.400;7.608;2023-05-22T04:56:49;101468.78;;;16.70;86.31
73267;BME280;61495;53.400;7.608;2023-05-22T04:59:16;101474.75;;;16.72;86.13
73267;BME280;61495;53.400;7.608;2023-05-22T05:01:41;101479.13;;;16.73;85.16
73267;BME280;61495;53.400;7.608;2023-05-22T05:04:15;101482.41;;;16.75;85.67
73267;BME280;61495;53.400;7.608;2023-05-22T05:06:41;101490.53;;;16.75;85.72
73267;BME280;61495;53.400;7.608;2023-05-22T05:09:07;101484.53;;;16.73;84.40
73267;BME280;61495;53.400;7.608;2023-05-22T05:11:33;101485.13;;;16.75;85.44
73267;BME280;61495;53.400;7.608;2023-05-22T05:13:59;101477.84;;;16.76;84.66
73267;BME280;61495;53.400;7.608;2023-05-22T05:16:24;101483.88;;;16.78;85.10
73267;BME280;61495;53.400;7.608;2023-05-22T05:18:50;101485.00;;;16.70;85.99
73267;BME280;61495;53.400;7.608;2023-05-22T05:21:16;101485.38;;;16.74;85.92
73267;BME280;61495;53.400;7.608;2023-05-22T05:23:41;101491.16;;;16.77;84.45
73267;BME280;61495;53.400;7.608;2023-05-22T05:26:07;101488.19;;;16.79;84.18
73267;BME280;61495;53.400;7.608;2023-05-22T05:28:32;101489.03;;;16.79;85.27
73267;BME280;61495;53.400;7.608;2023-05-22T05:30:57;101476.22;;;16.75;85.77
73267;BME280;61495;53.400;7.608;2023-05-22T05:33:23;101481.16;;;16.78;85.47
73267;BME280;61495;53.400;7.608;2023-05-22T05:35:48;101489.13;;;16.73;86.54
73267;BME280;61495;53.400;7.608;2023-05-22T05:38:17;101499.94;;;16.73;85.88
73267;BME280;61495;53.400;7.608;2023-05-22T05:40:46;101509.94;;;16.72;85.90
73267;BME280;61495;53.400;7.608;2023-05-22T05:43:12;101512.66;;;16.72;84.99
73267;BME280;61495;53.400;7.608;2023-05-22T05:45:41;101511.84;;;16.72;85.41
73267;BME280;61495;53.400;7.608;2023-05-22T05:48:07;101519.25;;;16.76;84.58
73267;BME280;61495;53.400;7.608;2023-05-22T05:50:32;101514.56;;;16.72;85.66
73267;BME280;61495;53.400;7.608;2023-05-22T05:52:57;101516.44;;;16.71;84.81
73267;BME280;61495;53.400;7.608;2023-05-22T05:55:23;101495.81;;;16.70;84.70
73267;BME280;61495;53.400;7.608;2023-05-22T05:57:48;101534.63;;;16.64;86.81
73267;BME280;61495;53.400;7.608;2023-05-22T06:00:14;101532.50;;;16.66;86.82
73267;BME280;61495;53.400;7.608;2023-05-22T06:02:44;101525.09;;;16.61;85.29
73267;BME280;61495;53.400;7.608;2023-05-22T06:05:10;101520.97;;;16.59;85.49
73267;BME280;61495;53.400;7.608;2023-05-22T06:07:36;101518.97;;;16.66;84.99
73267;BME280;61495;53.400;7.608;2023-05-22T06:10:05;101517.19;;;16.60;86.67
73267;BME280;61495;53.400;7.608;2023-05-22T06:12:31;101490.22;;;16.53;85.54
73267;BME280;61495;53.400;7.608;2023-05-22T06:14:57;101474.00;;;16.53;87.04
73267;BME280;61495;53.400;7.608;2023-05-22T06:17:22;101463.72;;;16.44;87.93
73267;BME280;61495;53.400;7.608;2023-05-22T06:19:47;101494.16;;;16.39;88.39
73267;BME280;61495;53.400;7.608;2023-05-22T06:22:13;101505.09;;;16.33;88.12
73267;BME280;61495;53.400;7.608;2023-05-22T06:24:38;101503.78;;;16.35;87.54
73267;BME280;61495;53.400;7.608;2023-05-22T06:27:03;101512.88;;;16.41;86.75
73267;BME280;61495;53.400;7.608;2023-05-22T06:29:29;101511.59;;;16.43;86.27
73267;BME280;61495;53.400;7.608;2023-05-22T06:31:55;101499.81;;;16.38;87.11
73267;BME280;61495;53.400;7.608;2023-05-22T06:34:23;101520.16;;;16.40;87.69
73267;BME280;61495;53.400;7.608;2023-05-22T06:36:49;101508.38;;;16.35;88.00
73267;BME280;61495;53.400;7.608;2023-05-22T06:39:16;101520.69;;;16.31;88.93
73267;BME280;61495;53.400;7.608;2023-05-22T06:41:43;101512.56;;;16.31;89.21
73267;BME280;61495;53.400;7.608;2023-05-22T06:44:08;101499.66;;;16.33;88.23
73267;BME280;61495;53.400;7.608;2023-05-22T06:46:33;101504.00;;;16.34;88.52
73267;BME280;61495;53.400;7.608;2023-05-22T06:48:59;101480.00;;;16.26;87.67
73267;BME280;61495;53.400;7.608;2023-05-22T06:51:24;101481.78;;;16.32;88.44
73267;BME280;61495;53.400;7.608;2023-05-22T06:53:50;101496.25;;;16.37;88.47
73267;BME280;61495;53.400;7.608;2023-05-22T06:56:16;101510.50;;;16.33;88.86
73267;BME280;61495;53.400;7.608;2023-05-22T06:58:42;101514.94;;;16.27;90.02
73267;BME280;61495;53.400;7.608;2023-05-22T07:01:07;101513.66;;;16.30;89.08
73267;BME280;61495;53.400;7.608;2023-05-22T07:03:42;101527.00;;;16.25;90.29
73267;BME280;61495;53.400;7.608;2023-05-22T07:06:07;101538.19;;;16.28;89.82
73267;BME280;61495;53.400;7.608;2023-05-22T07:08:33;101522.56;;;16.30;88.43
73267;BME280;61495;53.400;7.608;2023-05-22T07:10:58;101528.47;;;16.27;88.93
73267;BME280;61495;53.400;7.608;2023-05-22T07:13:26;101538.34;;;16.33;88.42
73267;BME280;61495;53.400;7.608;2023-05-22T07:15:52;101536.47;;;16.34;88.07
73267;BME280;61495;53.400;7.608;2023-05-22T07:18:18;101545.19;;;16.36;87.92
73267;BME280;61495;53.400;7.608;2023-05-22T07:20:43;101552.84;;;16.39;87.40
73267;BME280;61495;53.400;7.608;2023-05-22T07:23:10;101548.34;;;16.33;87.93
73267;BME280;61495;53.400;7.608;2023-05-22T07:25:35;101557.44;;;16.38;88.58
73267;BME280;61495;53.400;7.608;2023-05-22T07:28:00;101561.41;;;16.36;89.20
73267;BME280;61495;53.400;7.608;2023-05-22T07:30:28;101556.22;;;16.34;89.23
73267;BME280;61495;53.400;7.608;2023-05-22T07:32:53;101535.78;;;16.38;89.33
73267;BME280;61495;53.400;7.608;2023-05-22T07:35:19;101536.63;;;16.39;88.37
73267;BME280;61495;53.400;7.608;2023-05-22T07:37:44;101541.19;;;16.38;90.16
73267;BME280;61495;53.400;7.608;2023-05-22T07:40:10;101536.63;;;16.39;88.68
73267;BME280;61495;53.400;7.608;2023-05-22T07:42:35;101525.19;;;16.37;88.90
73267;BME280;61495;53.400;7.608;2023-05-22T07:45:02;101530.75;;;16.42;88.43
73267;BME280;61495;53.400;7.608;2023-05-22T07:47:27;101516.16;;;16.43;88.26
73267;BME280;61495;53.400;7.608;2023-05-22T07:49:53;101523.00;;;16.45;89.07
73267;BME280;61495;53.400;7.608;2023-05-22T07:52:18;101525.47;;;16.47;88.99
73267;BME280;61495;53.400;7.608;2023-05-22T07:54:45;101523.97;;;16.51;89.22
73267;BME280;61495;53.400;7.608;2023-05-22T07:57:11;101516.06;;;16.49;89.61
73267;BME280;61495;53.400;7.608;2023-05-22T07:59:36;101525.84;;;16.50;89.51
73267;BME280;61495;53.400;7.608;2023-05-22T08:02:02;101532.47;;;16.54;90.79
73267;BME280;61495;53.400;7.608;2023-05-22T08:04:27;101524.78;;;16.51;91.10
73267;BME280;61495;53.400;7.608;2023-05-22T08:06:54;101514.38;;;16.55;91.74
73267;BME280;61495;53.400;7.608;2023-05-22T08:09:19;101522.16;;;16.63;91.74
73267;BME280;61495;53.400;7.608;2023-05-22T08:11:45;101512.91;;;16.71;91.05
73267;BME280;61495;53.400;7.608;2023-05-22T08:14:11;101521.13;;;16.76;90.93
73267;BME280;61495;53.400;7.608;2023-05-22T08:16:36;101526.38;;;16.89;90.79
73267;BME280;61495;53.400;7.608;2023-05-22T08:19:02;101513.06;;;16.87;92.77
73267;BME280;61495;53.400;7.608;2023-05-22T08:21:27;101514.97;;;16.98;91.14
73267;BME280;61495;53.400;7.608;2023-05-22T08:23:53;101514.06;;;17.04;91.26
73267;BME280;61495;53.400;7.608;2023-05-22T08:26:18;101525.59;;;17.11;90.10
73267;BME280;61495;53.400;7.608;2023-05-22T08:28:44;101523.94;;;17.10;90.34
73267;BME280;61495;53.400;7.608;2023-05-22T08:31:10;101511.47;;;17.21;89.81
73267;BME280;61495;53.400;7.608;2023-05-22T08:33:39;101517.84;;;17.27;89.93
73267;BME280;61495;53.400;7.608;2023-05-22T08:36:05;101511.84;;;17.25;89.63
73267;BME280;61495;53.400;7.608;2023-05-22T08:38:30;101523.50;;;17.37;89.24
73267;BME280;61495;53.400;7.608;2023-05-22T08:40:56;101525.28;;;17.43;88.63
73267;BME280;61495;53.400;7.608;2023-05-22T08:43:22;101518.19;;;17.53;88.93
73267;BME280;61495;53.400;7.608;2023-05-22T08:46:07;101514.22;;;17.67;88.48
73267;BME280;61495;53.400;7.608;2023-05-22T08:48:33;101517.75;;;17.80;87.97
73267;BME280;61495;53.400;7.608;2023-05-22T08:51:03;101521.63;;;17.95;87.44
73267;BME280;61495;53.400;7.608;2023-05-22T08:53:33;101519.59;;;17.91;87.33
73267;BME280;61495;53.400;7.608;2023-05-22T08:55:59;101511.66;;;18.12;86.48
73267;BME280;61495;53.400;7.608;2023-05-22T08:58:24;101512.00;;;18.16;86.39
73267;BME280;61495;53.400;7.608;2023-05-22T09:00:51;101524.34;;;18.23;85.61
73267;BME280;61495;53.400;7.608;2023-05-22T09:03:20;101504.53;;;18.35;85.49
73267;BME280;61495;53.400;7.608;2023-05-22T09:05:47;101515.91;;;18.48;85.25
73267;BME280;61495;53.400;7.608;2023-05-22T09:08:13;101504.59;;;18.51;85.23
73267;BME280;61495;53.400;7.608;2023-05-22T09:10:39;101494.66;;;18.57;84.60
73267;BME280;61495;53.400;7.608;2023-05-22T09:13:08;101499.59;;;18.60;84.88
73267;BME280;61495;53.400;7.608;2023-05-22T09:15:35;101510.06;;;18.68;84.23
73267;BME280;61495;53.400;7.608;2023-05-22T09:18:04;101520.13;;;18.67;83.52
73267;BME280;61495;53.400;7.608;2023-05-22T09:20:37;101529.66;;;18.70;83.69
73267;BME280;61495;53.400;7.608;2023-05-22T09:23:12;101523.63;;;18.68;82.88
73267;BME280;61495;53.400;7.608;2023-05-22T09:25:46;101520.78;;;18.74;82.97
73267;BME280;61495;53.400;7.608;2023-05-22T09:28:12;101515.69;;;18.78;82.85
73267;BME280;61495;53.400;7.608;2023-05-22T09:30:37;101515.59;;;18.73;82.82
73267;BME280;61495;53.400;7.608;2023-05-22T09:36:32;101528.84;;;18.86;82.30
73267;BME280;61495;53.400;7.608;2023-05-22T09:39:02;101530.09;;;18.95;82.03
73267;BME280;61495;53.400;7.608;2023-05-22T09:41:29;101535.47;;;19.07;81.94
73267;BME280;61495;53.400;7.608;2023-05-22T09:43:55;101534.16;;;19.09;81.70
73267;BME280;61495;53.400;7.608;2023-05-22T09:46:20;101539.09;;;19.12;82.02
73267;BME280;61495;53.400;7.608;2023-05-22T09:48:55;101511.75;;;19.02;81.19
73267;BME280;61495;53.400;7.608;2023-05-22T09:51:21;101532.09;;;19.16;80.55
73267;BME280;61495;53.400;7.608;2023-05-22T09:53:51;101553.59;;;19.18;80.45
73267;BME280;61495;53.400;7.608;2023-05-22T09:56:21;101535.56;;;19.28;80.89
73267;BME280;61495;53.400;7.608;2023-05-22T09:58:49;101544.13;;;19.20;80.46
73267;BME280;61495;53.400;7.608;2023-05-22T10:01:18;101537.38;;;19.23;80.55
73267;BME280;61495;53.400;7.608;2023-05-22T10:03:53;101540.25;;;19.16;79.50
73267;BME280;61495;53.400;7.608;2023-05-22T10:06:20;101525.44;;;19.07;79.77
73267;BME280;61495;53.400;7.608;2023-05-22T10:08:51;101526.94;;;19.15;79.97
73267;BME280;61495;53.400;7.608;2023-05-22T10:11:19;101531.69;;;19.24;80.22
73267;BME280;61495;53.400;7.608;2023-05-22T10:13:45;101515.78;;;19.16;79.90
73267;BME280;61495;53.400;7.608;2023-05-22T10:16:14;101524.03;;;19.21;79.50
73267;BME280;61495;53.400;7.608;2023-05-22T10:18:41;101519.00;;;19.13;80.25
73267;BME280;61495;53.400;7.608;2023-05-22T10:21:08;101518.59;;;19.21;79.86
73267;BME280;61495;53.400;7.608;2023-05-22T10:23:33;101513.84;;;19.12;80.18
73267;BME280;61495;53.400;7.608;2023-05-22T10:25:59;101516.56;;;19.12;79.74
73267;BME280;61495;53.400;7.608;2023-05-22T10:28:31;101520.00;;;19.07;80.11
73267;BME280;61495;53.400;7.608;2023-05-22T10:31:07;101515.72;;;19.11;80.34
73267;BME280;61495;53.400;7.608;2023-05-22T10:33:48;101495.53;;;19.07;80.44
73267;BME280;61495;53.400;7.608;2023-05-22T10:36:26;101509.47;;;19.11;80.35
73267;BME280;61495;53.400;7.608;2023-05-22T10:41:47;101511.09;;;19.28;80.33
73267;BME280;61495;53.400;7.608;2023-05-22T10:44:13;101503.38;;;19.20;80.50
73267;BME280;61495;53.400;7.608;2023-05-22T10:46:38;101501.22;;;19.22;80.83
73267;BME280;61495;53.400;7.608;2023-05-22T10:49:04;101511.59;;;19.25;80.57
73267;BME280;61495;53.400;7.608;2023-05-22T10:51:31;101500.72;;;19.25;80.27
73267;BME280;61495;53.400;7.608;2023-05-22T10:53:59;101501.41;;;19.32;80.56
73267;BME280;61495;53.400;7.608;2023-05-22T10:56:36;101512.00;;;19.34;79.98
73267;BME280;61495;53.400;7.608;2023-05-22T10:59:03;101493.81;;;19.34;80.07
73267;BME280;61495;53.400;7.608;2023-05-22T11:01:30;101492.75;;;19.35;80.27
73267;BME280;61495;53.400;7.608;2023-05-22T11:04:04;101490.19;;;19.46;80.42
73267;BME280;61495;53.400;7.608;2023-05-22T11:09:29;101488.19;;;19.58;80.22
73267;BME280;61495;53.400;7.608;2023-05-22T11:12:14;101479.97;;;19.53;79.96
73267;BME280;61495;53.400;7.608;2023-05-22T11:14:41;101478.97;;;19.59;79.99
73267;BME280;61495;53.400;7.608;2023-05-22T11:17:06;101480.63;;;19.60;79.75
73267;BME280;61495;53.400;7.608;2023-05-22T11:19:32;101465.63;;;19.57;80.10
73267;BME280;61495;53.400;7.608;2023-05-22T11:22:02;101473.38;;;19.65;79.84
73267;BME280;61495;53.400;7.608;2023-05-22T11:24:32;101470.31;;;19.62;80.25
73267;BME280;61495;53.400;7.608;2023-05-22T11:27:04;101467.09;;;19.65;80.15
73267;BME280;61495;53.400;7.608;2023-05-22T11:29:30;101464.94;;;19.67;79.82
73267;BME280;61495;53.400;7.608;2023-05-22T11:32:00;101472.38;;;19.71;79.41
73267;BME280;61495;53.400;7.608;2023-05-22T11:34:29;101471.59;;;19.76;79.80
73267;BME280;61495;53.400;7.608;2023-05-22T11:36:58;101470.34;;;19.83;79.18
73267;BME280;61495;53.400;7.608;2023-05-22T11:39:24;101475.97;;;19.77;79.33
73267;BME280;61495;53.400;7.608;2023-05-22T11:41:50;101481.72;;;19.80;79.27
73267;BME280;61495;53.400;7.608;2023-05-22T11:44:15;101469.75;;;19.81;79.60
73267;BME280;61495;53.400;7.608;2023-05-22T11:46:41;101468.31;;;19.74;79.53
73267;BME280;61495;53.400;7.608;2023-05-22T11:49:08;101465.59;;;19.74;79.15
73267;BME280;61495;53.400;7.608;2023-05-22T11:51:37;101472.81;;;19.85;79.26
73267;BME280;61495;53.400;7.608;2023-05-22T11:54:03;101461.75;;;19.91;78.65
73267;BME280;61495;53.400;7.608;2023-05-22T11:56:29;101466.50;;;20.01;78.59
73267;BME280;61495;53.400;7.608;2023-05-22T11:58:55;101466.03;;;20.09;78.50
73267;BME280;61495;53.400;7.608;2023-05-22T12:01:21;101465.84;;;20.16;77.91
73267;BME280;61495;53.400;7.608;2023-05-22T12:03:46;101459.75;;;20.09;78.46
73267;BME280;61495;53.400;7.608;2023-05-22T12:06:11;101452.44;;;20.09;78.18
73267;BME280;61495;53.400;7.608;2023-05-22T12:08:37;101453.25;;;20.10;77.98
73267;BME280;61495;53.400;7.608;2023-05-22T12:11:04;101460.63;;;20.14;77.80
73267;BME280;61495;53.400;7.608;2023-05-22T12:13:30;101450.03;;;20.13;77.08
73267;BME280;61495;53.400;7.608;2023-05-22T12:15:58;101453.56;;;20.13;77.79
73267;BME280;61495;53.400;7.608;2023-05-22T12:18:35;101448.69;;;20.15;77.36
73267;BME280;61495;53.400;7.608;2023-05-22T12:21:04;101452.53;;;20.19;77.35
73267;BME280;61495;53.400;7.608;2023-05-22T12:23:30;101451.91;;;20.12;76.90
73267;BME280;61495;53.400;7.608;2023-05-22T12:25:57;101454.09;;;20.10;76.56
73267;BME280;61495;53.400;7.608;2023-05-22T12:28:23;101455.38;;;20.08;76.97
73267;BME280;61495;53.400;7.608;2023-05-22T12:30:52;101454.69;;;20.17;76.97
73267;BME280;61495;53.400;7.608;2023-05-22T12:33:38;101465.56;;;20.17;76.61
73267;BME280;61495;53.400;7.608;2023-05-22T12:36:08;101456.34;;;20.18;76.62
73267;BME280;61495;53.400;7.608;2023-05-22T12:38:36;101461.00;;;20.23;76.71
73267;BME280;61495;53.400;7.608;2023-05-22T12:41:02;101464.31;;;20.25;76.38
73267;BME280;61495;53.400;7.608;2023-05-22T12:43:27;101453.75;;;20.28;76.53
73267;BME280;61495;53.400;7.608;2023-05-22T12:45:52;101450.06;;;20.39;76.70
73267;BME280;61495;53.400;7.608;2023-05-22T12:48:18;101443.84;;;20.44;76.71
73267;BME280;61495;53.400;7.608;2023-05-22T12:50:44;101446.84;;;20.42;75.18
73267;BME280;61495;53.400;7.608;2023-05-22T12:53:10;101439.69;;;20.36;76.02
73267;BME280;61495;53.400;7.608;2023-05-22T12:55:37;101435.88;;;20.37;76.09
73267;BME280;61495;53.400;7.608;2023-05-22T12:58:02;101432.25;;;20.54;75.74
73267;BME280;61495;53.400;7.608;2023-05-22T13:00:28;101435.63;;;20.66;75.78
73267;BME280;61495;53.400;7.608;2023-05-22T13:02:54;101417.63;;;20.65;75.80
73267;BME280;61495;53.400;7.608;2023-05-22T13:05:19;101435.66;;;20.71;75.48
73267;BME280;61495;53.400;7.608;2023-05-22T13:07:45;101421.72;;;20.67;75.79
73267;BME280;61495;53.400;7.608;2023-05-22T13:10:11;101426.97;;;20.74;74.97